sensor_id;sensor_type;location;lat;lon;timestamp;pressure;altitude;pressure_sealevel;temperature;humidity
86320;BME280;76974;51.278;16.870;2024-03-02T03:02:01;99308.13;;;12.20;70.15
86320;BME280;76974;51.278;16.870;2024-03-02T03:04:27;99305.06;;;13.08;66.60
86320;BME280;76974;51.278;16.870;2024-03-02T03:06:52;99299.34;;;12.43;69.23
86320;BME280;76974;51.278;16.870;2024-03-02T03:09:18;99305.91;;;13.27;66.27
86320;BME280;76974;51.278;16.870;2024-03-02T03:11:44;99294.16;;;12.78;66.81
86320;BME280;76974;51.278;16.870;2024-03-02T03:14:10;99306.06;;;13.73;64.01
86320;BME280;76974;51.278;16.870;2024-03-02T03:16:35;99304.88;;;13.40;64.17
86320;BME280;76974;51.278;16.870;2024-03-02T03:19:01;99303.84;;;13.41;64.60
86320;BME280;76974;51.278;16.870;2024-03-02T03:21:27;99310.22;;;12.98;65.88
86320;BME280;76974;51.278;16.870;2024-03-02T03:23:53;99305.63;;;12.98;64.50
86320;BME280;76974;51.278;16.870;2024-03-02T03:26:18;99319.56;;;12.22;67.96
86320;BME280;76974;51.278;16.870;2024-03-02T03:28:44;99318.94;;;12.45;67.42
86320;BME280;76974;51.278;16.870;2024-03-02T03:31:09;99322.97;;;12.18;68.65
86320;BME280;76974;51.278;16.870;2024-03-02T03:33:36;99322.13;;;12.60;67.58
86320;BME280;76974;51.278;16.870;2024-03-02T03:36:02;99328.56;;;11.67;70.85
86320;BME280;76974;51.278;16.870;2024-03-02T03:38:29;99333.75;;;11.68;70.64
86320;BME280;76974;51.278;16.870;2024-03-02T03:40:55;99325.81;;;12.05;69.68
86320;BME280;76974;51.278;16.870;2024-03-02T03:43:21;99329.69;;;12.77;66.56
86320;BME280;76974;51.278;16.870;2024-03-02T03:45:46;99330.22;;;12.24;68.11
86320;BME280;76974;51.278;16.870;2024-03-02T03:48:12;99319.13;;;12.25;68.11
86320;BME280;76974;51.278;16.870;2024-03-02T03:50:38;99332.59;;;12.14;68.96
86320;BME280;76974;51.278;16.870;2024-03-02T03:53:04;99340.56;;;11.08;72.44
86320;BME280;76974;51.278;16.870;2024-03-02T03:55:29;99334.47;;;12.38;67.58
86320;BME280;76974;51.278;16.870;2024-03-02T03:57:55;99333.59;;;12.62;66.70
86320;BME280;76974;51.278;16.870;2024-03-02T04:00:21;99334.97;;;12.28;67.75
86320;BME280;76974;51.278;16.870;2024-03-02T04:02:47;99337.72;;;12.04;69.29
86320;BME280;76974;51.278;16.870;2024-03-02T04:05:13;99322.03;;;12.06;68.28
86320;BME280;76974;51.278;16.870;2024-03-02T04:07:39;99331.59;;;12.08;68.44
86320;BME280;76974;51.278;16.870;2024-03-02T04:10:10;99345.41;;;11.75;69.24
86320;BME280;76974;51.278;16.870;2024-03-02T04:12:36;99333.47;;;12.08;68.25
86320;BME280;76974;51.278;16.870;2024-03-02T04:15:04;99294.22;;;12.35;66.63
86320;BME280;76974;51.278;16.870;2024-03-02T04:17:33;99338.53;;;12.04;68.67
86320;BME280;76974;51.278;16.870;2024-03-02T04:19:59;99321.78;;;12.07;67.97
86320;BME280;76974;51.278;16.870;2024-03-02T04:22:26;99328.34;;;11.68;70.17
86320;BME280;76974;51.278;16.870;2024-03-02T04:24:52;99345.72;;;11.92;69.57
86320;BME280;76974;51.278;16.870;2024-03-02T04:27:18;99347.00;;;12.14;68.97
86320;BME280;76974;51.278;16.870;2024-03-02T04:29:44;99338.78;;;11.64;70.61
86320;BME280;76974;51.278;16.870;2024-03-02T04:32:10;99351.03;;;11.74;70.73
86320;BME280;76974;51.278;16.870;2024-03-02T04:34:35;99348.66;;;11.90;69.09
86320;BME280;76974;51.278;16.870;2024-03-02T04:37:01;99354.19;;;11.71;69.60
86320;BME280;76974;51.278;16.870;2024-03-02T04:39:27;99353.03;;;11.53;70.44
86320;BME280;76974;51.278;16.870;2024-03-02T04:41:53;99354.44;;;12.01;68.86
86320;BME280;76974;51.278;16.870;2024-03-02T04:44:18;99362.59;;;12.87;65.42
86320;BME280;76974;51.278;16.870;2024-03-02T04:46:44;99360.19;;;13.33;62.98
86320;BME280;76974;51.278;16.870;2024-03-02T04:49:10;99355.03;;;12.89;64.34
86320;BME280;76974;51.278;16.870;2024-03-02T04:51:35;99366.53;;;11.98;68.59
86320;BME280;76974;51.278;16.870;2024-03-02T04:54:01;99359.91;;;12.19;67.73
86320;BME280;76974;51.278;16.870;2024-03-02T04:56:27;99354.28;;;12.20;67.90
86320;BME280;76974;51.278;16.870;2024-03-02T04:59:10;99347.91;;;12.33;66.78
86320;BME280;76974;51.278;16.870;2024-03-02T05:01:36;99331.25;;;12.23;66.37
86320;BME280;76974;51.278;16.870;2024-03-02T05:04:03;99352.78;;;12.86;64.07
86320;BME280;76974;51.278;16.870;2024-03-02T05:06:29;99363.94;;;12.10;66.70
86320;BME280;76974;51.278;16.870;2024-03-02T05:08:55;99349.09;;;12.80;63.39
86320;BME280;76974;51.278;16.870;2024-03-02T05:11:21;99378.56;;;11.39;69.67
86320;BME280;76974;51.278;16.870;2024-03-02T05:14:19;99357.34;;;12.24;67.17
86320;BME280;76974;51.278;16.870;2024-03-02T05:16:45;99372.00;;;11.53;69.69
86320;BME280;76974;51.278;16.870;2024-03-02T05:19:11;99381.22;;;12.40;66.44
86320;BME280;76974;51.278;16.870;2024-03-02T05:21:36;99368.97;;;12.56;65.90
86320;BME280;76974;51.278;16.870;2024-03-02T05:24:02;99385.06;;;12.76;65.59
86320;BME280;76974;51.278;16.870;2024-03-02T05:26:28;99378.31;;;13.21;63.04
86320;BME280;76974;51.278;16.870;2024-03-02T05:28:54;99373.38;;;13.48;62.08
86320;BME280;76974;51.278;16.870;2024-03-02T05:31:20;99389.31;;;13.45;61.16
86320;BME280;76974;51.278;16.870;2024-03-02T05:33:45;99387.81;;;12.94;64.13
86320;BME280;76974;51.278;16.870;2024-03-02T05:36:11;99381.38;;;12.88;63.48
86320;BME280;76974;51.278;16.870;2024-03-02T05:38:37;99395.22;;;14.01;60.25
86320;BME280;76974;51.278;16.870;2024-03-02T05:41:03;99402.19;;;13.37;61.51
86320;BME280;76974;51.278;16.870;2024-03-02T05:43:28;99392.88;;;13.45;62.15
86320;BME280;76974;51.278;16.870;2024-03-02T05:45:54;99405.31;;;11.67;68.74
86320;BME280;76974;51.278;16.870;2024-03-02T05:48:20;99403.56;;;12.17;66.81
86320;BME280;76974;51.278;16.870;2024-03-02T05:50:45;99398.69;;;12.26;66.03
86320;BME280;76974;51.278;16.870;2024-03-02T05:53:11;99402.53;;;11.36;69.19
86320;BME280;76974;51.278;16.870;2024-03-02T05:55:37;99409.44;;;11.83;68.50
86320;BME280;76974;51.278;16.870;2024-03-02T05:58:02;99409.19;;;11.91;67.76
86320;BME280;76974;51.278;16.870;2024-03-02T06:00:31;99407.06;;;12.49;64.81
86320;BME280;76974;51.278;16.870;2024-03-02T06:02:57;99418.09;;;11.98;67.11
86320;BME280;76974;51.278;16.870;2024-03-02T06:05:23;99412.38;;;12.62;64.74
86320;BME280;76974;51.278;16.870;2024-03-02T06:07:50;99415.22;;;13.11;62.65
86320;BME280;76974;51.278;16.870;2024-03-02T06:10:15;99424.47;;;12.85;63.43
86320;BME280;76974;51.278;16.870;2024-03-02T06:12:41;99421.19;;;12.33;65.51
86320;BME280;76974;51.278;16.870;2024-03-02T06:15:07;99414.06;;;12.82;63.68
86320;BME280;76974;51.278;16.870;2024-03-02T06:17:35;99414.78;;;14.75;57.08
86320;BME280;76974;51.278;16.870;2024-03-02T06:20:01;99426.69;;;12.94;61.17
86320;BME280;76974;51.278;16.870;2024-03-02T06:22:27;99426.34;;;12.84;62.67
86320;BME280;76974;51.278;16.870;2024-03-02T06:24:52;99425.88;;;13.30;61.63
86320;BME280;76974;51.278;16.870;2024-03-02T06:27:18;99438.44;;;12.88;62.33
86320;BME280;76974;51.278;16.870;2024-03-02T06:29:44;99430.88;;;13.33;61.11
86320;BME280;76974;51.278;16.870;2024-03-02T06:32:09;99428.78;;;14.78;56.79
86320;BME280;76974;51.278;16.870;2024-03-02T06:34:35;99442.19;;;13.49;60.52
86320;BME280;76974;51.278;16.870;2024-03-02T06:37:01;99451.19;;;12.13;66.03
86320;BME280;76974;51.278;16.870;2024-03-02T06:39:26;99441.19;;;12.07;65.64
86320;BME280;76974;51.278;16.870;2024-03-02T06:41:52;99440.94;;;12.90;63.22
86320;BME280;76974;51.278;16.870;2024-03-02T06:44:17;99438.44;;;14.09;58.87
86320;BME280;76974;51.278;16.870;2024-03-02T06:46:43;99439.25;;;13.32;60.71
86320;BME280;76974;51.278;16.870;2024-03-02T06:49:09;99443.69;;;13.08;61.49
86320;BME280;76974;51.278;16.870;2024-03-02T06:51:36;99432.84;;;12.09;65.21
86320;BME280;76974;51.278;16.870;2024-03-02T06:54:02;99456.06;;;11.47;69.14
86320;BME280;76974;51.278;16.870;2024-03-02T06:56:27;99450.16;;;11.70;67.95
86320;BME280;76974;51.278;16.870;2024-03-02T06:58:53;99441.41;;;11.61;69.47
86320;BME280;76974;51.278;16.870;2024-03-02T07:01:19;99456.38;;;11.77;67.74
86320;BME280;76974;51.278;16.870;2024-03-02T07:03:45;99448.44;;;12.94;64.58
86320;BME280;76974;51.278;16.870;2024-03-02T07:06:11;99447.25;;;12.84;64.66
86320;BME280;76974;51.278;16.870;2024-03-02T07:08:37;99443.44;;;11.85;68.44
86320;BME280;76974;51.278;16.870;2024-03-02T07:11:02;99446.09;;;11.92;68.00
86320;BME280;76974;51.278;16.870;2024-03-02T07:13:28;99456.31;;;12.53;66.26
86320;BME280;76974;51.278;16.870;2024-03-02T07:15:54;99456.47;;;11.57;69.30
86320;BME280;76974;51.278;16.870;2024-03-02T07:18:40;99448.78;;;12.30;67.70
86320;BME280;76974;51.278;16.870;2024-03-02T07:21:10;99456.47;;;12.02;67.96
86320;BME280;76974;51.278;16.870;2024-03-02T07:23:36;99454.19;;;12.30;67.45
86320;BME280;76974;51.278;16.870;2024-03-02T07:26:02;99455.50;;;11.89;69.01
86320;BME280;76974;51.278;16.870;2024-03-02T07:28:29;99438.31;;;12.02;68.46
86320;BME280;76974;51.278;16.870;2024-03-02T07:31:04;99432.19;;;13.61;62.41
86320;BME280;76974;51.278;16.870;2024-03-02T07:33:30;99453.31;;;12.86;66.13
86320;BME280;76974;51.278;16.870;2024-03-02T07:35:57;99441.25;;;12.82;66.39
86320;BME280;76974;51.278;16.870;2024-03-02T07:38:24;99441.28;;;13.18;64.47
86320;BME280;76974;51.278;16.870;2024-03-02T07:40:50;99447.56;;;12.76;64.76
86320;BME280;76974;51.278;16.870;2024-03-02T07:43:17;99445.00;;;12.56;66.58
86320;BME280;76974;51.278;16.870;2024-03-02T07:45:43;99456.47;;;12.02;68.24
86320;BME280;76974;51.278;16.870;2024-03-02T07:48:08;99458.97;;;12.84;64.68
86320;BME280;76974;51.278;16.870;2024-03-02T07:50:34;99468.81;;;13.03;67.09
86320;BME280;76974;51.278;16.870;2024-03-02T07:53:01;99462.06;;;12.88;66.10
86320;BME280;76974;51.278;16.870;2024-03-02T07:55:27;99461.78;;;12.96;65.70
86320;BME280;76974;51.278;16.870;2024-03-02T07:57:52;99455.44;;;13.02;65.85
86320;BME280;76974;51.278;16.870;2024-03-02T08:00:18;99443.63;;;13.33;64.21
86320;BME280;76974;51.278;16.870;2024-03-02T08:02:44;99471.16;;;13.91;63.48
86320;BME280;76974;51.278;16.870;2024-03-02T08:05:10;99455.09;;;13.17;64.03
86320;BME280;76974;51.278;16.870;2024-03-02T08:07:36;99471.81;;;12.71;68.13
86320;BME280;76974;51.278;16.870;2024-03-02T08:10:02;99468.41;;;13.00;66.04
86320;BME280;76974;51.278;16.870;2024-03-02T08:12:27;99464.19;;;13.47;63.81
86320;BME280;76974;51.278;16.870;2024-03-02T08:14:53;99463.72;;;14.70;60.80
86320;BME280;76974;51.278;16.870;2024-03-02T08:17:19;99452.84;;;13.32;65.52
86320;BME280;76974;51.278;16.870;2024-03-02T08:19:45;99450.81;;;13.94;63.08
86320;BME280;76974;51.278;16.870;2024-03-02T08:22:10;99455.88;;;13.24;65.13
86320;BME280;76974;51.278;16.870;2024-03-02T08:24:37;99459.56;;;13.48;64.51
86320;BME280;76974;51.278;16.870;2024-03-02T08:27:03;99473.31;;;13.16;64.57
86320;BME280;76974;51.278;16.870;2024-03-02T08:29:28;99470.84;;;13.99;62.83
86320;BME280;76974;51.278;16.870;2024-03-02T08:31:54;99465.28;;;14.06;64.18
86320;BME280;76974;51.278;16.870;2024-03-02T08:34:20;99465.41;;;13.51;63.69
86320;BME280;76974;51.278;16.870;2024-03-02T08:36:46;99459.84;;;14.36;62.67
86320;BME280;76974;51.278;16.870;2024-03-02T08:39:12;99450.13;;;13.68;63.34
86320;BME280;76974;51.278;16.870;2024-03-02T08:41:47;99459.19;;;13.62;64.57
86320;BME280;76974;51.278;16.870;2024-03-02T08:44:14;99467.75;;;13.96;63.85
86320;BME280;76974;51.278;16.870;2024-03-02T08:46:40;99468.47;;;14.33;60.59
86320;BME280;76974;51.278;16.870;2024-03-02T08:49:06;99473.78;;;14.69;60.87
86320;BME280;76974;51.278;16.870;2024-03-02T08:51:32;99459.69;;;14.84;59.98
86320;BME280;76974;51.278;16.870;2024-03-02T08:53:59;99470.00;;;15.92;56.83
86320;BME280;76974;51.278;16.870;2024-03-02T08:56:25;99452.75;;;14.35;60.99
86320;BME280;76974;51.278;16.870;2024-03-02T08:58:52;99478.50;;;14.51;60.83
86320;BME280;76974;51.278;16.870;2024-03-02T09:01:18;99443.09;;;14.74;59.19
86320;BME280;76974;51.278;16.870;2024-03-02T09:03:47;99460.47;;;15.55;58.07
86320;BME280;76974;51.278;16.870;2024-03-02T09:06:14;99463.44;;;15.53;58.44
86320;BME280;76974;51.278;16.870;2024-03-02T09:08:42;99468.53;;;15.73;58.13
86320;BME280;76974;51.278;16.870;2024-03-02T09:11:14;99474.38;;;15.41;57.43
86320;BME280;76974;51.278;16.870;2024-03-02T09:13:40;99456.00;;;15.13;58.94
86320;BME280;76974;51.278;16.870;2024-03-02T09:16:08;99467.59;;;15.96;55.89
86320;BME280;76974;51.278;16.870;2024-03-02T09:18:36;99459.06;;;14.47;61.81
86320;BME280;76974;51.278;16.870;2024-03-02T09:21:01;99470.25;;;15.04;58.47
86320;BME280;76974;51.278;16.870;2024-03-02T09:23:27;99464.00;;;17.19;54.02
86320;BME280;76974;51.278;16.870;2024-03-02T09:25:53;99467.97;;;15.99;55.78
86320;BME280;76974;51.278;16.870;2024-03-02T09:28:18;99472.19;;;16.07;55.63
86320;BME280;76974;51.278;16.870;2024-03-02T09:30:44;99464.66;;;15.34;57.65
86320;BME280;76974;51.278;16.870;2024-03-02T09:33:10;99475.91;;;14.67;59.80
86320;BME280;76974;51.278;16.870;2024-03-02T09:35:37;99405.00;;;15.77;55.98
86320;BME280;76974;51.278;16.870;2024-03-02T09:38:02;99462.56;;;15.76;55.57
86320;BME280;76974;51.278;16.870;2024-03-02T09:40:29;99471.06;;;15.16;58.28
86320;BME280;76974;51.278;16.870;2024-03-02T09:42:54;99441.00;;;15.63;56.81
86320;BME280;76974;51.278;16.870;2024-03-02T09:45:25;99456.63;;;15.27;56.88
86320;BME280;76974;51.278;16.870;2024-03-02T09:47:50;99452.66;;;15.46;56.46
86320;BME280;76974;51.278;16.870;2024-03-02T09:50:16;99448.75;;;15.42;57.29
86320;BME280;76974;51.278;16.870;2024-03-02T09:52:43;99462.69;;;14.94;56.97
86320;BME280;76974;51.278;16.870;2024-03-02T09:55:09;99461.94;;;15.22;56.28
86320;BME280;76974;51.278;16.870;2024-03-02T09:57:35;99455.56;;;15.80;54.96
86320;BME280;76974;51.278;16.870;2024-03-02T10:00:00;99461.94;;;16.59;53.90
86320;BME280;76974;51.278;16.870;2024-03-02T10:02:26;99472.34;;;15.48;54.54
86320;BME280;76974;51.278;16.870;2024-03-02T10:04:52;99462.91;;;16.53;52.69
86320;BME280;76974;51.278;16.870;2024-03-02T10:07:18;99439.34;;;16.02;54.06
86320;BME280;76974;51.278;16.870;2024-03-02T10:09:46;99454.59;;;15.86;55.12
86320;BME280;76974;51.278;16.870;2024-03-02T10:12:13;99466.53;;;15.45;55.66
86320;BME280;76974;51.278;16.870;2024-03-02T10:14:39;99438.94;;;14.48;58.99
86320;BME280;76974;51.278;16.870;2024-03-02T10:17:10;99451.63;;;15.24;55.85
86320;BME280;76974;51.278;16.870;2024-03-02T10:19:37;99456.19;;;15.70;54.64
86320;BME280;76974;51.278;16.870;2024-03-02T10:22:10;99455.13;;;15.71;55.57
86320;BME280;76974;51.278;16.870;2024-03-02T10:24:37;99433.63;;;16.82;52.27
86320;BME280;76974;51.278;16.870;2024-03-02T10:29:39;99444.84;;;17.19;51.04
86320;BME280;76974;51.278;16.870;2024-03-02T10:32:05;99455.72;;;16.47;51.91
86320;BME280;76974;51.278;16.870;2024-03-02T10:34:32;99437.63;;;16.12;54.17
86320;BME280;76974;51.278;16.870;2024-03-02T10:36:59;99451.03;;;15.86;54.02
86320;BME280;76974;51.278;16.870;2024-03-02T10:39:26;99442.06;;;15.62;52.77
86320;BME280;76974;51.278;16.870;2024-03-02T10:41:52;99454.34;;;16.78;52.54
86320;BME280;76974;51.278;16.870;2024-03-02T10:44:18;99428.44;;;16.18;51.58
86320;BME280;76974;51.278;16.870;2024-03-02T10:46:45;99455.00;;;15.55;53.59
86320;BME280;76974;51.278;16.870;2024-03-02T10:49:12;99457.66;;;15.90;53.41
86320;BME280;76974;51.278;16.870;2024-03-02T10:51:38;99456.78;;;15.72;56.58
86320;BME280;76974;51.278;16.870;2024-03-02T10:54:05;99445.81;;;15.84;53.48
86320;BME280;76974;51.278;16.870;2024-03-02T10:56:38;99453.47;;;15.99;53.61
86320;BME280;76974;51.278;16.870;2024-03-02T10:59:19;99447.06;;;15.53;54.04
86320;BME280;76974;51.278;16.870;2024-03-02T11:01:48;99416.88;;;15.20;55.44
86320;BME280;76974;51.278;16.870;2024-03-02T11:04:16;99432.34;;;17.06;50.30
86320;BME280;76974;51.278;16.870;2024-03-02T11:06:50;99423.34;;;16.72;50.17
86320;BME280;76974;51.278;16.870;2024-03-02T11:09:21;99430.28;;;16.97;50.73
86320;BME280;76974;51.278;16.870;2024-03-02T11:12:12;99439.81;;;15.59;54.29
86320;BME280;76974;51.278;16.870;2024-03-02T11:14:41;99437.00;;;17.06;52.72
86320;BME280;76974;51.278;16.870;2024-03-02T11:17:11;99431.63;;;16.94;51.66
86320;BME280;76974;51.278;16.870;2024-03-02T11:19:39;99430.47;;;16.90;51.29
86320;BME280;76974;51.278;16.870;2024-03-02T11:22:06;99432.31;;;16.68;51.87
86320;BME280;76974;51.278;16.870;2024-03-02T11:24:33;99430.22;;;16.58;52.11
86320;BME280;76974;51.278;16.870;2024-03-02T11:27:03;99436.50;;;16.59;51.96
86320;BME280;76974;51.278;16.870;2024-03-02T11:34:46;99442.31;;;16.00;52.98
86320;BME280;76974;51.278;16.870;2024-03-02T11:37:14;99424.66;;;15.91;52.61
86320;BME280;76974;51.278;16.870;2024-03-02T11:39:40;99442.03;;;16.30;51.64
86320;BME280;76974;51.278;16.870;2024-03-02T11:42:07;99426.94;;;16.11;52.26
86320;BME280;76974;51.278;16.870;2024-03-02T11:44:35;99444.28;;;16.50;51.26
86320;BME280;76974;51.278;16.870;2024-03-02T11:47:05;99433.97;;;16.24;52.63
86320;BME280;76974;51.278;16.870;2024-03-02T11:49:40;99444.94;;;16.57;53.17
86320;BME280;76974;51.278;16.870;2024-03-02T11:52:08;99431.63;;;16.44;51.45
86320;BME280;76974;51.278;16.870;2024-03-02T11:54:37;99436.63;;;15.62;53.67
86320;BME280;76974;51.278;16.870;2024-03-02T11:57:08;99434.25;;;16.39;52.41
86320;BME280;76974;51.278;16.870;2024-03-02T11:59:34;99439.09;;;16.65;51.32
86320;BME280;76974;51.278;16.870;2024-03-02T12:02:00;99434.25;;;17.06;51.66
86320;BME280;76974;51.278;16.870;2024-03-02T12:04:26;99445.72;;;16.69;51.78
86320;BME280;76974;51.278;16.870;2024-03-02T12:06:56;99441.38;;;16.40;51.45
86320;BME280;76974;51.278;16.870;2024-03-02T12:09:26;99426.31;;;15.92;53.33
86320;BME280;76974;51.278;16.870;2024-03-02T12:12:05;99442.59;;;17.98;48.68
86320;BME280;76974;51.278;16.870;2024-03-02T12:14:31;99448.69;;;16.68;51.94
86320;BME280;76974;51.278;16.870;2024-03-02T12:16:57;99448.13;;;16.21;52.37
86320;BME280;76974;51.278;16.870;2024-03-02T12:19:25;99449.06;;;16.26;52.10
86320;BME280;76974;51.278;16.870;2024-03-02T12:21:52;99434.44;;;16.66;51.84
86320;BME280;76974;51.278;16.870;2024-03-02T12:24:18;99447.09;;;16.55;53.80
86320;BME280;76974;51.278;16.870;2024-03-02T12:26:44;99422.72;;;16.37;52.85
86320;BME280;76974;51.278;16.870;2024-03-02T12:29:12;99428.59;;;16.12;52.37
86320;BME280;76974;51.278;16.870;2024-03-02T12:31:39;99443.66;;;16.14;53.71
86320;BME280;76974;51.278;16.870;2024-03-02T12:34:04;99438.16;;;15.98;54.33
86320;BME280;76974;51.278;16.870;2024-03-02T12:36:30;99439.38;;;16.18;53.74
86320;BME280;76974;51.278;16.870;2024-03-02T12:39:02;99433.91;;;16.18;52.54
86320;BME280;76974;51.278;16.870;2024-03-02T12:41:28;99438.53;;;15.61;54.64
86320;BME280;76974;51.278;16.870;2024-03-02T12:43:54;99440.28;;;16.24;53.78
86320;BME280;76974;51.278;16.870;2024-03-02T12:46:20;99431.47;;;16.84;51.66
86320;BME280;76974;51.278;16.870;2024-03-02T12:48:46;99426.94;;;17.11;50.68
86320;BME280;76974;51.278;16.870;2024-03-02T12:51:12;99433.72;;;16.70;51.64
86320;BME280;76974;51.278;16.870;2024-03-02T12:53:40;99438.31;;;16.53;52.47
86320;BME280;76974;51.278;16.870;2024-03-02T12:56:08;99425.09;;;16.95;50.62
86320;BME280;76974;51.278;16.870;2024-03-02T12:58:44;99422.47;;;17.22;49.65
86320;BME280;76974;51.278;16.870;2024-03-02T13:01:11;99417.22;;;17.42;50.10
86320;BME280;76974;51.278;16.870;2024-03-02T13:03:38;99426.25;;;16.82;51.03
86320;BME280;76974;51.278;16.870;2024-03-02T13:06:06;99414.75;;;16.64;51.68
86320;BME280;76974;51.278;16.870;2024-03-02T13:08:33;99431.41;;;17.17;50.55
86320;BME280;76974;51.278;16.870;2024-03-02T13:10:59;99428.88;;;16.44;52.37
86320;BME280;76974;51.278;16.870;2024-03-02T13:13:24;99411.22;;;16.35;52.49
86320;BME280;76974;51.278;16.870;2024-03-02T13:15:55;99431.94;;;15.86;53.80
86320;BME280;76974;51.278;16.870;2024-03-02T13:18:21;99413.88;;;16.30;52.77
86320;BME280;76974;51.278;16.870;2024-03-02T13:20:47;99410.97;;;16.53;52.10
86320;BME280;76974;51.278;16.870;2024-03-02T13:23:15;99408.78;;;17.22;50.81
86320;BME280;76974;51.278;16.870;2024-03-02T13:25:40;99406.53;;;16.80;51.50
86320;BME280;76974;51.278;16.870;2024-03-02T13:28:06;99419.69;;;16.83;52.08
86320;BME280;76974;51.278;16.870;2024-03-02T13:30:32;99419.97;;;17.20;50.10
86320;BME280;76974;51.278;16.870;2024-03-02T13:32:58;99421.81;;;16.98;49.99
86320;BME280;76974;51.278;16.870;2024-03-02T13:35:24;99417.09;;;16.27;53.20
86320;BME280;76974;51.278;16.870;2024-03-02T13:37:49;99406.41;;;16.25;52.79
86320;BME280;76974;51.278;16.870;2024-03-02T13:40:16;99417.94;;;17.11;51.56
86320;BME280;76974;51.278;16.870;2024-03-02T13:42:46;99415.22;;;16.94;51.35
86320;BME280;76974;51.278;16.870;2024-03-02T13:45:13;99426.81;;;16.84;52.47
86320;BME280;76974;51.278;16.870;2024-03-02T13:47:39;99419.75;;;16.22;53.79
86320;BME280;76974;51.278;16.870;2024-03-02T13:50:07;99417.38;;;16.59;53.11
86320;BME280;76974;51.278;16.870;2024-03-02T13:52:36;99421.84;;;16.31;52.69
86320;BME280;76974;51.278;16.870;2024-03-02T13:55:01;99425.50;;;16.87;52.27
86320;BME280;76974;51.278;16.870;2024-03-02T13:57:28;99418.13;;;15.92;53.90
86320;BME280;76974;51.278;16.870;2024-03-02T13:59:54;99409.06;;;16.03;54.05
86320;BME280;76974;51.278;16.870;2024-03-02T14:02:20;99411.94;;;15.97;53.66
86320;BME280;76974;51.278;16.870;2024-03-02T14:04:48;99428.25;;;16.08;52.79
86320;BME280;76974;51.278;16.870;2024-03-02T14:07:17;99421.88;;;16.65;51.32
86320;BME280;76974;51.278;16.870;2024-03-02T14:09:43;99412.53;;;16.15;52.73
86320;BME280;76974;51.278;16.870;2024-03-02T14:12:09;99421.56;;;17.16;50.83
86320;BME280;76974;51.278;16.870;2024-03-02T14:14:34;99431.28;;;15.95;53.60
86320;BME280;76974;51.278;16.870;2024-03-02T14:17:00;99436.94;;;15.77;54.59
86320;BME280;76974;51.278;16.870;2024-03-02T14:19:29;99431.56;;;16.10;53.79
86320;BME280;76974;51.278;16.870;2024-03-02T14:21:54;99431.88;;;15.97;54.06
86320;BME280;76974;51.278;16.870;2024-03-02T14:24:21;99411.63;;;15.41;56.67
86320;BME280;76974;51.278;16.870;2024-03-02T14:26:55;99430.78;;;16.43;53.22
86320;BME280;76974;51.278;16.870;2024-03-02T14:29:22;99431.72;;;16.04;53.69
86320;BME280;76974;51.278;16.870;2024-03-02T14:31:49;99436.84;;;16.45;53.83
86320;BME280;76974;51.278;16.870;2024-03-02T14:34:15;99429.63;;;16.39;53.38
86320;BME280;76974;51.278;16.870;2024-03-02T14:36:42;99441.53;;;16.50;52.78
86320;BME280;76974;51.278;16.870;2024-03-02T14:39:10;99432.13;;;16.58;53.49
86320;BME280;76974;51.278;16.870;2024-03-02T14:41:39;99438.91;;;16.55;52.47
86320;BME280;76974;51.278;16.870;2024-03-02T14:44:04;99443.13;;;16.46;52.96
86320;BME280;76974;51.278;16.870;2024-03-02T14:46:30;99431.03;;;17.09;51.70
86320;BME280;76974;51.278;16.870;2024-03-02T14:48:57;99415.53;;;15.57;55.69
86320;BME280;76974;51.278;16.870;2024-03-02T14:51:26;99428.94;;;15.35;56.44
86320;BME280;76974;51.278;16.870;2024-03-02T14:53:52;99384.94;;;16.79;52.32
86320;BME280;76974;51.278;16.870;2024-03-02T14:56:18;99415.88;;;17.01;51.85
86320;BME280;76974;51.278;16.870;2024-03-02T14:58:43;99419.94;;;16.32;55.06
86320;BME280;76974;51.278;16.870;2024-03-02T15:01:11;99418.19;;;16.59;53.12
86320;BME280;76974;51.278;16.870;2024-03-02T15:03:36;99413.28;;;15.82;55.26
86320;BME280;76974;51.278;16.870;2024-03-02T15:06:02;99415.09;;;16.22;54.70
86320;BME280;76974;51.278;16.870;2024-03-02T15:08:29;99423.09;;;14.92;58.34
86320;BME280;76974;51.278;16.870;2024-03-02T15:10:56;99425.13;;;16.16;54.70
86320;BME280;76974;51.278;16.870;2024-03-02T15:13:23;99421.28;;;14.86;58.57
86320;BME280;76974;51.278;16.870;2024-03-02T15:15:51;99417.84;;;15.25;58.15
86320;BME280;76974;51.278;16.870;2024-03-02T15:18:19;99424.00;;;16.46;53.94
86320;BME280;76974;51.278;16.870;2024-03-02T15:20:45;99423.06;;;15.27;57.18
86320;BME280;76974;51.278;16.870;2024-03-02T15:23:10;99422.44;;;15.36;57.68
86320;BME280;76974;51.278;16.870;2024-03-02T15:25:37;99432.00;;;16.64;53.29
86320;BME280;76974;51.278;16.870;2024-03-02T15:28:04;99427.19;;;16.26;54.25
86320;BME280;76974;51.278;16.870;2024-03-02T15:30:30;99418.84;;;15.47;56.37
86320;BME280;76974;51.278;16.870;2024-03-02T15:32:56;99418.56;;;15.09;58.27
86320;BME280;76974;51.278;16.870;2024-03-02T15:35:23;99420.47;;;15.72;56.52
86320;BME280;76974;51.278;16.870;2024-03-02T15:37:50;99424.47;;;15.18;57.89
86320;BME280;76974;51.278;16.870;2024-03-02T15:40:17;99414.72;;;16.80;53.38
86320;BME280;76974;51.278;16.870;2024-03-02T15:42:43;99410.13;;;16.02;54.72
86320;BME280;76974;51.278;16.870;2024-03-02T15:45:09;99425.56;;;15.68;55.72
86320;BME280;76974;51.278;16.870;2024-03-02T15:47:35;99426.53;;;14.64;60.30
86320;BME280;76974;51.278;16.870;2024-03-02T15:50:05;99422.56;;;16.27;53.91
86320;BME280;76974;51.278;16.870;2024-03-02T15:52:31;99424.00;;;16.46;53.33
86320;BME280;76974;51.278;16.870;2024-03-02T15:54:57;99420.84;;;15.92;54.58
86320;BME280;76974;51.278;16.870;2024-03-02T15:57:23;99419.03;;;14.59;59.56